createdAt,value
2017-11-21T00:02:09.314Z,24.77
2017-11-21T00:04:39.236Z,25.23
2017-11-21T00:07:09.116Z,24.40
2017-11-21T00:09:39.015Z,24.30
2017-11-21T00:12:08.940Z,25.13
2017-11-21T00:14:38.848Z,24.27
2017-11-21T00:17:08.768Z,26.50
2017-11-21T00:19:38.687Z,23.50
2017-11-21T00:22:08.558Z,23.60
2017-11-21T00:24:38.479Z,25.03
2017-11-21T00:27:08.374Z,23.87
2017-11-21T00:29:38.308Z,23.80
2017-11-21T00:32:08.261Z,23.73
2017-11-21T00:34:38.138Z,25.50
2017-11-21T00:37:08.056Z,25.10
2017-11-21T00:39:37.937Z,22.90
2017-11-21T00:42:07.839Z,23.20
2017-11-21T00:44:37.708Z,23.40
2017-11-21T00:47:07.626Z,23.67
2017-11-21T00:49:37.510Z,24.47
2017-11-21T00:52:07.399Z,24.23
2017-11-21T00:54:37.268Z,22.33
2017-11-21T00:57:07.177Z,24.50
2017-11-21T00:59:37.111Z,23.50
2017-11-21T01:02:06.982Z,22.43
2017-11-21T01:04:36.897Z,21.67
2017-11-21T01:07:06.762Z,23.97
2017-11-21T01:09:36.658Z,24.20
2017-11-21T01:12:06.629Z,21.93
2017-11-21T01:14:36.540Z,22.43
2017-11-21T01:17:06.432Z,21.27
2017-11-21T01:19:36.323Z,21.30
2017-11-21T01:22:06.251Z,22.30
2017-11-21T01:24:36.114Z,22.80
2017-11-21T01:27:06.018Z,22.57
2017-11-21T01:29:36.182Z,21.90
2017-11-21T01:32:06.183Z,19.90
2017-11-21T01:34:36.048Z,23.00
2017-11-21T01:37:05.942Z,22.90
2017-11-21T01:39:35.832Z,21.67
2017-11-21T01:42:05.791Z,22.67
2017-11-21T01:44:35.677Z,22.53
2017-11-21T01:47:05.584Z,21.90
2017-11-21T01:49:35.480Z,23.50
2017-11-21T01:52:05.382Z,22.80
2017-11-21T01:54:35.264Z,21.77
2017-11-21T01:57:05.147Z,21.47
2017-11-21T01:59:35.052Z,21.70
2017-11-21T02:02:04.935Z,22.93
2017-11-21T02:04:34.951Z,22.93
2017-11-21T02:07:04.816Z,22.17
2017-11-21T02:09:34.720Z,21.17
2017-11-21T02:12:04.629Z,21.83
2017-11-21T02:14:34.506Z,20.93
2017-11-21T02:17:04.396Z,21.10
2017-11-21T02:19:34.284Z,22.13
2017-11-21T02:22:04.184Z,22.00
2017-11-21T02:24:34.043Z,19.97
2017-11-21T02:27:03.925Z,20.93
2017-11-21T02:29:33.807Z,19.70
2017-11-21T02:32:03.708Z,19.97
2017-11-21T02:34:33.576Z,20.97
2017-11-21T02:37:03.476Z,21.57
2017-11-21T02:39:33.351Z,21.00
2017-11-21T02:42:03.240Z,19.53
2017-11-21T02:44:33.255Z,21.63
2017-11-21T02:47:03.124Z,22.70
2017-11-21T02:49:33.014Z,20.00
2017-11-21T02:52:02.897Z,19.50
2017-11-21T02:54:33.876Z,18.97
2017-11-21T02:57:03.738Z,20.73
2017-11-21T02:59:33.628Z,19.20
2017-11-21T03:02:03.510Z,19.60
2017-11-21T03:04:33.423Z,20.20
2017-11-21T03:07:03.434Z,18.60
2017-11-21T03:09:33.358Z,17.70
2017-11-21T03:12:03.266Z,18.53
2017-11-21T03:14:33.166Z,17.40
2017-11-21T03:17:03.079Z,18.60
2017-11-21T03:19:33.106Z,19.70
2017-11-21T03:22:14.711Z,18.57
2017-11-21T03:24:56.302Z,19.20
2017-11-21T03:27:32.852Z,20.00
2017-11-21T03:30:02.750Z,19.30
2017-11-21T03:32:32.664Z,18.93
2017-11-21T03:35:02.539Z,18.93
2017-11-21T03:37:32.415Z,18.10
2017-11-21T03:40:02.338Z,19.80
2017-11-21T03:42:32.218Z,21.13
2017-11-21T03:45:02.173Z,19.83
2017-11-21T03:47:32.090Z,19.23
2017-11-21T03:50:02.003Z,18.87
2017-11-21T03:52:31.921Z,20.07
2017-11-21T03:55:01.865Z,19.53
2017-11-21T03:57:31.743Z,19.30
2017-11-21T04:00:01.685Z,21.43
2017-11-21T04:02:31.606Z,21.17
2017-11-21T04:05:01.509Z,20.37
2017-11-21T04:07:31.363Z,21.37
2017-11-21T04:10:01.245Z,20.23
2017-11-21T04:12:31.125Z,20.20
2017-11-21T04:15:00.985Z,20.93
2017-11-21T04:17:30.881Z,20.60
2017-11-21T04:20:00.779Z,22.50
2017-11-21T04:22:30.694Z,19.57
2017-11-21T04:25:00.570Z,19.40
2017-11-21T04:27:30.460Z,20.93
2017-11-21T04:30:00.333Z,20.93
2017-11-21T04:32:30.234Z,21.00
2017-11-21T04:35:00.139Z,21.43
2017-11-21T04:37:30.024Z,21.60
2017-11-21T04:39:59.976Z,22.20
2017-11-21T04:42:29.918Z,20.03
2017-11-21T04:44:59.811Z,21.87
2017-11-21T04:47:29.710Z,22.53
2017-11-21T04:49:59.617Z,22.00
2017-11-21T04:52:29.555Z,23.00
2017-11-21T04:54:59.438Z,23.70
2017-11-21T04:57:29.307Z,22.83
2017-11-21T04:59:59.212Z,21.37
2017-11-21T05:02:29.086Z,21.87
2017-11-21T05:04:58.969Z,23.23
2017-11-21T05:07:28.867Z,23.33
2017-11-21T05:09:59.036Z,22.37
2017-11-21T05:12:28.975Z,21.23
2017-11-21T05:14:58.835Z,20.47
2017-11-21T05:17:28.747Z,19.83
2017-11-21T05:19:58.619Z,20.90
2017-11-21T05:22:28.722Z,21.80
2017-11-21T05:24:58.962Z,20.30
2017-11-21T05:27:29.958Z,18.83
2017-11-21T05:29:59.938Z,19.37
2017-11-21T05:32:42.519Z,20.40
2017-11-21T05:35:12.461Z,20.40
2017-11-21T05:37:42.355Z,21.70
2017-11-21T05:40:12.224Z,20.03
2017-11-21T05:42:42.113Z,18.77
2017-11-21T05:45:11.987Z,20.13
2017-11-21T05:47:41.915Z,20.07
2017-11-21T05:50:11.806Z,20.43
2017-11-21T05:52:41.712Z,19.47
2017-11-21T05:55:11.696Z,20.30
2017-11-21T05:57:41.678Z,20.33
2017-11-21T06:00:11.538Z,21.93
2017-11-21T06:02:41.425Z,20.03
2017-11-21T06:05:11.310Z,21.10
2017-11-21T06:07:41.203Z,21.70
2017-11-21T06:10:11.090Z,20.20
2017-11-21T06:12:41.036Z,21.77
2017-11-21T06:15:10.926Z,21.27
2017-11-21T06:17:40.799Z,20.50
2017-11-21T06:20:10.703Z,20.80
2017-11-21T06:22:40.575Z,21.10
2017-11-21T06:25:10.479Z,20.03
2017-11-21T06:27:40.355Z,19.07
2017-11-21T06:30:11.171Z,19.17
2017-11-21T06:32:41.087Z,19.47
2017-11-21T06:35:10.974Z,20.07
2017-11-21T06:37:40.890Z,19.17
2017-11-21T06:40:10.769Z,19.70
2017-11-21T06:42:40.751Z,20.00
2017-11-21T06:45:10.647Z,20.03
2017-11-21T06:47:40.529Z,20.40
2017-11-21T06:50:10.797Z,21.67
2017-11-21T06:52:40.687Z,21.60
2017-11-21T06:55:10.581Z,19.77
2017-11-21T06:57:40.446Z,19.63
2017-11-21T07:00:11.237Z,18.83
2017-11-21T07:02:41.098Z,19.70
2017-11-21T07:05:11.007Z,20.20
2017-11-21T07:07:40.874Z,19.60
2017-11-21T07:10:10.781Z,19.23
2017-11-21T07:12:40.643Z,20.43
2017-11-21T07:15:10.552Z,19.40
2017-11-21T07:17:40.435Z,20.70
2017-11-21T07:20:10.333Z,19.20
2017-11-21T07:22:40.209Z,20.33
2017-11-21T07:25:10.108Z,20.70
2017-11-21T07:27:40.014Z,19.80
2017-11-21T07:30:09.891Z,20.37
2017-11-21T07:32:39.792Z,19.43
2017-11-21T07:35:09.751Z,19.60
2017-11-21T07:37:39.674Z,18.67
2017-11-21T07:40:09.571Z,21.10
2017-11-21T07:42:39.471Z,20.10
2017-11-21T07:45:09.380Z,19.30
2017-11-21T07:47:39.283Z,18.80
2017-11-21T07:50:09.198Z,19.27
2017-11-21T07:52:39.090Z,17.77
2017-11-21T07:55:08.966Z,29.77
2017-11-21T07:57:38.867Z,23.00
2017-11-21T08:00:08.905Z,18.33
2017-11-21T08:02:38.871Z,19.27
2017-11-21T08:05:08.846Z,18.93
2017-11-21T08:07:38.749Z,19.10
2017-11-21T08:10:08.655Z,19.33
2017-11-21T08:12:38.555Z,18.87
2017-11-21T08:15:08.444Z,17.30
2017-11-21T08:17:38.347Z,17.07
2017-11-21T08:20:08.223Z,16.70
2017-11-21T08:22:38.168Z,16.70
2017-11-21T08:25:08.059Z,16.67
2017-11-21T08:27:38.099Z,17.00
2017-11-21T08:30:07.976Z,18.43
2017-11-21T08:32:37.874Z,15.73
2017-11-21T08:35:07.796Z,15.37
2017-11-21T08:37:37.747Z,16.60
2017-11-21T08:40:07.637Z,17.17
2017-11-21T08:42:37.545Z,17.60
2017-11-21T08:45:07.468Z,17.70
2017-11-21T08:47:37.351Z,16.33
2017-11-21T08:50:07.258Z,16.23
2017-11-21T08:52:37.131Z,15.10
2017-11-21T08:55:07.049Z,16.87
2017-11-21T08:57:36.928Z,16.60
2017-11-21T09:00:06.875Z,16.57
2017-11-21T09:02:36.834Z,17.33
2017-11-21T09:05:06.752Z,16.27
2017-11-21T09:07:36.612Z,17.27
2017-11-21T09:10:08.013Z,18.07
2017-11-21T09:12:37.892Z,18.03
2017-11-21T09:15:07.800Z,17.57
2017-11-21T09:17:37.700Z,18.20
2017-11-21T09:20:07.651Z,18.03
2017-11-21T09:22:37.567Z,18.73
2017-11-21T09:25:07.456Z,16.43
2017-11-21T09:27:37.348Z,17.17
2017-11-21T09:30:07.216Z,17.00
2017-11-21T09:32:37.130Z,16.07
2017-11-21T09:35:07.019Z,17.17
2017-11-21T09:37:36.978Z,16.70
2017-11-21T09:40:06.946Z,16.53
2017-11-21T09:42:36.854Z,18.80
2017-11-21T09:45:06.715Z,17.30
2017-11-21T09:47:36.713Z,16.63
2017-11-21T09:50:06.666Z,17.90
2017-11-21T09:52:36.558Z,17.00
2017-11-21T09:55:06.451Z,19.53
2017-11-21T09:57:36.392Z,17.73
2017-11-21T10:00:06.283Z,17.83
2017-11-21T10:02:36.154Z,19.27
2017-11-21T10:05:06.076Z,16.17
2017-11-21T10:10:12.240Z,17.20
2017-11-21T10:12:42.102Z,17.53
2017-11-21T10:15:11.991Z,17.53
2017-11-21T10:17:41.886Z,17.23
2017-11-21T10:20:11.855Z,18.10
2017-11-21T10:22:41.749Z,15.57
2017-11-21T10:25:11.703Z,15.80
2017-11-21T10:27:41.627Z,14.90
2017-11-21T10:30:11.511Z,15.77
2017-11-21T10:32:41.437Z,13.73
2017-11-21T10:35:11.308Z,13.97
2017-11-21T10:37:41.218Z,12.83
2017-11-21T10:40:11.108Z,13.90
2017-11-21T10:42:41.059Z,14.63
2017-11-21T10:45:10.955Z,13.80
2017-11-21T10:47:40.899Z,13.47
2017-11-21T10:50:10.785Z,15.07
2017-11-21T10:52:40.731Z,15.23
2017-11-21T10:55:10.598Z,16.43
2017-11-21T10:57:40.482Z,15.20
2017-11-21T11:00:10.820Z,14.20
2017-11-21T11:02:40.709Z,14.50
2017-11-21T11:05:10.659Z,15.40
2017-11-21T11:07:40.587Z,16.20
2017-11-21T11:10:10.537Z,16.90
2017-11-21T11:12:40.456Z,16.47
2017-11-21T11:15:10.335Z,16.63
2017-11-21T11:17:40.256Z,15.53
2017-11-21T11:20:10.130Z,15.83
2017-11-21T11:22:40.050Z,15.43
2017-11-21T11:25:09.935Z,16.80
2017-11-21T11:27:40.798Z,15.27
2017-11-21T11:30:10.707Z,15.93
2017-11-21T11:32:40.672Z,15.27
2017-11-21T11:35:10.587Z,15.63
2017-11-21T11:37:40.504Z,15.03
2017-11-21T11:40:11.254Z,17.10
2017-11-21T11:42:41.113Z,15.50
2017-11-21T11:45:11.007Z,15.37
2017-11-21T11:47:40.879Z,15.77
2017-11-21T11:50:10.779Z,16.03
2017-11-21T11:52:40.658Z,16.57
2017-11-21T11:55:10.590Z,16.33
2017-11-21T11:57:40.478Z,16.23
2017-11-21T12:00:10.356Z,14.97
2017-11-21T12:02:40.250Z,15.30
2017-11-21T12:05:10.125Z,14.13
2017-11-21T12:07:40.023Z,15.53
2017-11-21T12:10:09.889Z,14.40
2017-11-21T12:12:39.793Z,15.37
2017-11-21T12:15:09.679Z,15.43
2017-11-21T12:17:39.654Z,13.27
2017-11-21T12:20:09.866Z,14.30
2017-11-21T12:22:40.057Z,13.17
2017-11-21T12:25:09.983Z,14.80
2017-11-21T12:27:39.864Z,15.40
2017-11-21T12:30:10.106Z,14.17
2017-11-21T12:32:40.182Z,14.73
2017-11-21T12:35:10.063Z,14.53
2017-11-21T12:37:39.975Z,13.90
2017-11-21T12:40:09.831Z,14.10
2017-11-21T12:42:39.870Z,14.07
2017-11-21T12:45:09.746Z,14.70
2017-11-21T12:47:39.654Z,15.00
2017-11-21T12:50:10.059Z,14.20
2017-11-21T12:52:39.985Z,14.07
2017-11-21T12:55:09.908Z,14.70
2017-11-21T12:57:39.785Z,15.20
2017-11-21T13:00:09.637Z,16.63
2017-11-21T13:02:39.550Z,14.80
2017-11-21T13:05:09.514Z,13.60
2017-11-21T13:07:39.393Z,15.13
2017-11-21T13:10:09.289Z,13.93
2017-11-21T13:12:39.164Z,15.47
2017-11-21T13:15:09.062Z,13.90
2017-11-21T13:17:39.015Z,15.30
2017-11-21T13:20:08.914Z,14.50
2017-11-21T13:22:38.827Z,14.70
2017-11-21T13:25:08.739Z,14.63
2017-11-21T13:27:38.707Z,15.47
2017-11-21T13:30:09.138Z,15.10
2017-11-21T13:32:39.083Z,16.20
2017-11-21T13:35:09.049Z,15.10
2017-11-21T13:37:38.952Z,16.70
2017-11-21T13:40:08.854Z,15.10
2017-11-21T13:42:38.773Z,14.87
2017-11-21T13:45:08.656Z,14.00
2017-11-21T13:47:38.534Z,15.20
2017-11-21T13:50:08.487Z,15.17
2017-11-21T13:52:38.367Z,13.30
2017-11-21T13:55:08.283Z,15.67
2017-11-21T13:57:38.137Z,14.47
2017-11-21T14:00:08.092Z,14.90
2017-11-21T14:02:48.629Z,14.93
2017-11-21T14:05:22.100Z,15.33
2017-11-21T14:07:51.987Z,15.73
2017-11-21T14:10:21.843Z,13.97
2017-11-21T14:12:51.734Z,13.57
2017-11-21T14:15:21.742Z,14.80
2017-11-21T14:17:51.629Z,15.73
2017-11-21T14:20:21.521Z,14.47
2017-11-21T14:22:51.526Z,14.40
2017-11-21T14:25:21.477Z,127.60
2017-11-21T14:27:51.364Z,22.73
2017-11-21T14:30:21.265Z,16.27
2017-11-21T14:32:51.151Z,14.80
2017-11-21T14:35:21.051Z,15.20
2017-11-21T14:37:51.003Z,13.80
2017-11-21T14:40:20.913Z,14.20
2017-11-21T14:42:50.802Z,14.23
2017-11-21T14:45:20.719Z,14.47
2017-11-21T14:47:50.573Z,15.43
2017-11-21T14:50:20.471Z,16.10
2017-11-21T14:52:50.404Z,15.87
2017-11-21T14:55:20.302Z,16.00
2017-11-21T14:57:50.257Z,15.07
2017-11-21T15:00:20.145Z,15.67
2017-11-21T15:02:50.155Z,15.00
2017-11-21T15:05:20.027Z,15.63
2017-11-21T15:07:49.941Z,15.93
2017-11-21T15:10:19.800Z,16.07
2017-11-21T15:12:49.714Z,15.37
2017-11-21T15:15:19.707Z,15.93
2017-11-21T15:17:49.623Z,17.10
2017-11-21T15:20:19.488Z,16.53
2017-11-21T15:22:49.392Z,17.10
2017-11-21T15:25:19.357Z,16.57
2017-11-21T15:27:49.219Z,16.03
2017-11-21T15:30:19.118Z,16.50
2017-11-21T15:32:49.018Z,17.27
2017-11-21T15:35:18.924Z,16.53
2017-11-21T15:37:48.809Z,15.80
2017-11-21T15:40:18.700Z,16.67
2017-11-21T15:42:48.623Z,16.43
2017-11-21T15:45:18.532Z,15.80
2017-11-21T15:47:48.414Z,13.50
2017-11-21T15:50:18.318Z,15.03
2017-11-21T15:52:48.248Z,15.80
2017-11-21T15:55:18.136Z,15.20
2017-11-21T15:57:48.221Z,14.90
2017-11-21T16:00:18.096Z,14.67
2017-11-21T16:02:47.995Z,13.27
2017-11-21T16:05:17.874Z,12.63
2017-11-21T16:07:47.794Z,13.40
2017-11-21T16:10:17.740Z,12.93
2017-11-21T16:12:47.678Z,12.60
2017-11-21T16:15:17.576Z,13.20
2017-11-21T16:17:47.481Z,12.60
2017-11-21T16:20:17.386Z,14.13
2017-11-21T16:22:47.266Z,14.30
2017-11-21T16:25:17.199Z,13.33
2017-11-21T16:27:47.084Z,12.30
2017-11-21T16:30:17.040Z,12.00
2017-11-21T16:32:46.945Z,12.33
2017-11-21T16:35:16.857Z,14.60
2017-11-21T16:37:46.729Z,11.73
2017-11-21T16:40:16.637Z,11.90
2017-11-21T16:42:46.568Z,12.57
2017-11-21T16:45:16.475Z,13.40
2017-11-21T16:47:46.383Z,10.67
2017-11-21T16:50:16.275Z,11.57
2017-11-21T16:52:46.207Z,12.00
2017-11-21T16:55:16.125Z,11.00
2017-11-21T16:57:46.083Z,10.80
2017-11-21T17:00:16.033Z,14.93
2017-11-21T17:02:45.977Z,11.37
2017-11-21T17:05:15.852Z,11.67
2017-11-21T17:07:45.864Z,12.23
2017-11-21T17:10:15.754Z,11.17
2017-11-21T17:12:45.689Z,11.10
2017-11-21T17:15:15.576Z,10.30
2017-11-21T17:17:45.534Z,10.00
2017-11-21T17:20:15.426Z,10.27
2017-11-21T17:22:45.309Z,10.00
2017-11-21T17:25:15.253Z,10.20
2017-11-21T17:27:45.162Z,10.90
2017-11-21T17:30:15.120Z,10.60
2017-11-21T17:32:45.281Z,10.70
2017-11-21T17:35:15.465Z,9.47
2017-11-21T17:37:45.421Z,10.07
2017-11-21T17:40:15.968Z,10.07
2017-11-21T17:42:45.911Z,9.97
2017-11-21T17:45:15.852Z,9.97
2017-11-21T17:47:46.301Z,8.93
2017-11-21T17:50:16.477Z,8.80
2017-11-21T17:52:46.424Z,8.77
2017-11-21T17:55:17.224Z,9.33
2017-11-21T17:57:47.116Z,10.30
2017-11-21T18:00:17.067Z,9.10
2017-11-21T18:02:47.091Z,10.20
2017-11-21T18:05:17.126Z,8.70
2017-11-21T18:07:47.993Z,8.33
2017-11-21T18:10:17.932Z,9.13
2017-11-21T18:12:47.923Z,10.00
2017-11-21T18:15:17.921Z,10.27
2017-11-21T18:17:47.903Z,8.50
2017-11-21T18:20:17.828Z,9.33
2017-11-21T18:22:47.765Z,9.33
2017-11-21T18:25:17.814Z,7.80
2017-11-21T18:27:47.883Z,9.37
2017-11-21T18:30:17.855Z,9.50
2017-11-21T18:32:59.497Z,8.53
2017-11-21T18:35:29.425Z,8.93
2017-11-21T18:37:59.363Z,8.60
2017-11-21T18:40:29.354Z,8.83
2017-11-21T18:42:59.603Z,8.53
2017-11-21T18:45:29.543Z,8.57
2017-11-21T18:47:59.438Z,7.70
2017-11-21T18:50:29.349Z,7.67
2017-11-21T18:52:59.254Z,7.90
2017-11-21T18:55:29.225Z,7.17
2017-11-21T18:57:59.148Z,8.00
2017-11-21T19:00:29.076Z,7.60
2017-11-21T19:02:59.007Z,7.30
2017-11-21T19:08:05.428Z,8.30
2017-11-21T19:10:35.315Z,7.97
2017-11-21T19:13:06.028Z,8.10
2017-11-21T19:15:35.976Z,7.73
2017-11-21T19:18:05.902Z,7.80
2017-11-21T19:20:35.793Z,7.70
2017-11-21T19:23:05.697Z,7.90
2017-11-21T19:25:35.646Z,8.20
2017-11-21T19:28:05.814Z,8.00
2017-11-21T19:30:35.747Z,8.43
2017-11-21T19:33:05.675Z,9.33
2017-11-21T19:35:35.591Z,8.60
2017-11-21T19:38:05.593Z,7.73
2017-11-21T19:40:35.511Z,7.90
2017-11-21T19:43:05.417Z,8.70
2017-11-21T19:45:35.306Z,8.63
2017-11-21T19:48:05.258Z,8.80
2017-11-21T19:50:35.168Z,9.10
2017-11-21T19:53:05.105Z,7.83
2017-11-21T19:55:35.009Z,8.17
2017-11-21T19:58:05.010Z,8.20
2017-11-21T20:00:34.973Z,7.03
2017-11-21T20:03:04.929Z,7.73
2017-11-21T20:05:34.929Z,7.43
2017-11-21T20:08:04.879Z,7.40
2017-11-21T20:10:35.513Z,7.30
2017-11-21T20:13:05.481Z,8.30
2017-11-21T20:15:35.348Z,7.40
2017-11-21T20:18:05.267Z,6.37
2017-11-21T20:20:35.176Z,7.50
2017-11-21T20:23:05.189Z,6.83
2017-11-21T20:25:35.059Z,7.00
2017-11-21T20:28:04.963Z,6.73
2017-11-21T20:30:34.857Z,5.97
2017-11-21T20:33:04.892Z,7.30
2017-11-21T20:35:34.813Z,7.37
2017-11-21T20:38:04.737Z,7.17
2017-11-21T20:40:34.691Z,6.57
2017-11-21T20:43:04.811Z,7.00
2017-11-21T20:45:34.706Z,6.70
2017-11-21T20:48:05.759Z,7.07
2017-11-21T20:50:35.636Z,7.23
2017-11-21T20:53:05.565Z,6.90
2017-11-21T20:55:35.461Z,6.20
2017-11-21T20:58:05.400Z,7.17
2017-11-21T21:00:35.294Z,6.30
2017-11-21T21:03:05.222Z,6.13
2017-11-21T21:05:35.160Z,7.10
2017-11-21T21:08:05.082Z,6.33
2017-11-21T21:10:35.006Z,6.87
2017-11-21T21:13:04.998Z,6.00
2017-11-21T21:15:34.906Z,7.07
2017-11-21T21:18:05.235Z,5.90
2017-11-21T21:20:35.126Z,6.30
2017-11-21T21:23:05.066Z,6.20
2017-11-21T21:25:34.938Z,6.83
2017-11-21T21:28:04.850Z,5.83
2017-11-21T21:30:34.706Z,5.50
2017-11-21T21:33:04.703Z,5.50
2017-11-21T21:35:34.575Z,5.37
2017-11-21T21:38:04.573Z,4.93
2017-11-21T21:40:34.478Z,5.60
2017-11-21T21:43:04.405Z,4.73
2017-11-21T21:45:34.323Z,5.00
2017-11-21T21:48:04.225Z,5.10
2017-11-21T21:50:34.171Z,4.70
2017-11-21T21:53:04.045Z,4.43
2017-11-21T21:55:33.947Z,4.50
2017-11-21T21:58:03.852Z,4.60
2017-11-21T22:13:23.945Z,3.60
2017-11-21T22:15:53.907Z,4.23
2017-11-21T22:18:23.899Z,4.27
2017-11-21T22:20:53.901Z,4.80
2017-11-21T22:23:23.863Z,4.50
2017-11-21T22:25:53.807Z,3.53
2017-11-21T22:28:23.778Z,3.70
2017-11-21T22:30:53.676Z,3.30
2017-11-21T22:33:23.761Z,3.90
2017-11-21T22:35:53.725Z,3.63
2017-11-21T22:38:23.657Z,3.00
2017-11-21T22:40:53.610Z,2.80
2017-11-21T22:43:23.674Z,3.20
2017-11-21T22:45:53.688Z,3.27
2017-11-21T22:48:23.652Z,2.77
2017-11-21T22:50:53.650Z,2.83
2017-11-21T22:53:23.775Z,2.43
2017-11-21T22:55:53.785Z,2.83
2017-11-21T22:58:23.753Z,3.50
2017-11-21T23:00:53.743Z,2.67
2017-11-21T23:03:23.748Z,3.00
2017-11-21T23:05:53.793Z,2.70
2017-11-21T23:08:24.533Z,3.00
2017-11-21T23:10:54.500Z,3.30
2017-11-21T23:13:25.120Z,3.40
2017-11-21T23:15:55.078Z,3.23
2017-11-21T23:28:05.008Z,3.30
2017-11-21T23:30:35.061Z,3.70
2017-11-21T23:33:05.535Z,3.70
2017-11-21T23:35:35.399Z,3.20
2017-11-21T23:38:05.295Z,4.03
2017-11-21T23:40:35.300Z,4.20
2017-11-21T23:43:05.266Z,4.33
2017-11-21T23:45:35.242Z,4.10
2017-11-21T23:48:05.185Z,4.87
2017-11-21T23:50:35.156Z,4.57
2017-11-21T23:53:05.134Z,4.00
2017-11-21T23:55:35.137Z,4.13
2017-11-21T23:58:05.105Z,3.80
